createdAt,value
2022-09-01T00:01:06.182Z,99.5
2022-09-01T00:06:12.594Z,99.5
2022-09-01T00:11:18.992Z,99.5
2022-09-01T00:16:25.359Z,99.5
2022-09-01T00:21:31.792Z,99.5
2022-09-01T00:26:38.253Z,99.5
2022-09-01T00:31:44.714Z,99.5
2022-09-01T00:36:51.191Z,99.5
2022-09-01T00:41:57.685Z,99.5
2022-09-01T00:47:04.183Z,99.5
2022-09-01T00:52:10.673Z,99.5
2022-09-01T00:57:17.192Z,99.5
2022-09-01T01:02:23.663Z,99.5
2022-09-01T01:07:30.152Z,99.5
2022-09-01T01:12:36.610Z,99.5
2022-09-01T01:17:43.114Z,99.5
2022-09-01T01:22:49.581Z,99.5
2022-09-01T01:27:56.070Z,99.5
2022-09-01T01:33:02.726Z,99.5
2022-09-01T01:38:09.313Z,99.5
2022-09-01T01:43:16.002Z,99.5
2022-09-01T01:48:22.678Z,99.5
2022-09-01T01:53:29.324Z,99.5
2022-09-01T01:58:35.986Z,99.5
2022-09-01T02:03:42.644Z,99.5
2022-09-01T02:08:49.326Z,99.5
2022-09-01T02:13:55.958Z,99.5
2022-09-01T02:19:02.622Z,99.5
2022-09-01T02:24:09.306Z,99.5
2022-09-01T02:29:15.994Z,99.5
2022-09-01T02:34:22.692Z,99.5
2022-09-01T02:39:29.567Z,99.5
2022-09-01T02:44:36.445Z,99.5
2022-09-01T02:49:43.348Z,99.5
2022-09-01T02:54:50.226Z,97.5
2022-09-01T02:59:57.129Z,95.5
2022-09-01T03:05:04.025Z,95.5
2022-09-01T03:10:10.884Z,95
2022-09-01T03:15:17.787Z,95
2022-09-01T03:20:24.681Z,95
2022-09-01T03:25:31.575Z,94
2022-09-01T03:30:38.465Z,94.5
2022-09-01T03:35:45.328Z,95
2022-09-01T03:40:52.205Z,95
2022-09-01T03:45:59.680Z,95
2022-09-01T03:51:07.179Z,95
2022-09-01T03:56:14.589Z,94.5
2022-09-01T04:01:22.035Z,94
2022-09-01T04:06:29.482Z,94.5
2022-09-01T04:11:36.924Z,95
2022-09-01T04:16:44.402Z,93.5
2022-09-01T04:21:51.853Z,93
2022-09-01T04:26:59.323Z,92
2022-09-01T04:32:06.780Z,91
2022-09-01T04:37:14.234Z,91
2022-09-01T04:42:21.683Z,91
2022-09-01T04:47:29.156Z,91
2022-09-01T04:52:37.608Z,91.5
2022-09-01T04:57:46.054Z,91.5
2022-09-01T05:02:52.481Z,92.5
2022-09-01T05:07:58.843Z,92
2022-09-01T05:13:05.204Z,91.5
2022-09-01T05:18:11.573Z,92
2022-09-01T05:23:17.963Z,92
2022-09-01T05:28:24.327Z,91.5
2022-09-01T05:33:30.682Z,89.5
2022-09-01T05:38:37.058Z,89.5
2022-09-01T05:43:43.405Z,89
2022-09-01T05:48:49.771Z,87
2022-09-01T05:53:56.124Z,85.5
2022-09-01T05:59:02.464Z,86
2022-09-01T06:04:08.851Z,85.5
2022-09-01T06:09:15.235Z,83.5
2022-09-01T06:14:21.604Z,82.5
2022-09-01T06:19:27.979Z,81.5
2022-09-01T06:24:34.354Z,81
2022-09-01T06:29:40.721Z,79.5
2022-09-01T06:34:47.096Z,71
2022-09-01T06:39:53.469Z,70
2022-09-01T06:44:59.842Z,67
2022-09-01T06:50:06.187Z,65.5
2022-09-01T07:00:18.922Z,60
2022-09-01T07:05:25.239Z,60
2022-09-01T07:10:31.630Z,59
2022-09-01T07:15:38.095Z,58
2022-09-01T07:20:44.567Z,55.5
2022-09-01T07:25:51.004Z,52.5
2022-09-01T07:30:57.461Z,51
2022-09-01T07:36:03.886Z,52.5
2022-09-01T07:41:10.354Z,49.5
2022-09-01T07:46:16.816Z,50
2022-09-01T07:51:23.300Z,49
2022-09-01T07:56:29.701Z,47.5
2022-09-01T08:01:36.133Z,45
2022-09-01T08:06:42.575Z,52.5
2022-09-01T08:11:49.011Z,45.5
2022-09-01T08:16:55.609Z,46.5
2022-09-01T08:22:02.196Z,49.5
2022-09-01T08:27:08.827Z,50
2022-09-01T08:32:15.380Z,48.5
2022-09-01T08:37:21.968Z,45
2022-09-01T08:42:28.539Z,44.5
2022-09-01T08:47:35.134Z,45
2022-09-01T08:52:41.717Z,45
2022-09-01T08:57:48.329Z,46.5
2022-09-01T09:02:54.890Z,43.5
2022-09-01T09:08:01.461Z,45.5
2022-09-01T09:13:08.032Z,44
2022-09-01T09:18:14.599Z,41
2022-09-01T09:23:21.471Z,39
2022-09-01T09:28:28.290Z,44.5
2022-09-01T09:33:35.110Z,41
2022-09-01T09:38:41.963Z,41.5
2022-09-01T09:43:48.779Z,44.5
2022-09-01T09:48:55.579Z,41
2022-09-01T09:54:02.391Z,42.5
2022-09-01T09:59:09.214Z,41
2022-09-01T10:09:22.886Z,41.5
2022-09-01T10:14:29.730Z,43
2022-09-01T10:19:36.522Z,40
2022-09-01T10:24:43.334Z,43
2022-09-01T10:29:50.796Z,39
2022-09-01T10:34:58.248Z,35
2022-09-01T10:40:05.598Z,39
2022-09-01T10:45:13.060Z,40
2022-09-01T10:50:20.427Z,39.5
2022-09-01T10:55:28.005Z,34.5
2022-09-01T11:00:35.317Z,36
2022-09-01T11:05:42.687Z,34.5
2022-09-01T11:10:50.219Z,40.5
2022-09-01T11:15:57.615Z,42
2022-09-01T11:21:05.037Z,41
2022-09-01T11:26:12.462Z,37.5
2022-09-01T11:31:19.817Z,37.5
2022-09-01T11:36:28.349Z,45.5
2022-09-01T11:41:35.026Z,47.5
2022-09-01T11:46:41.437Z,42
2022-09-01T11:51:47.830Z,35.5
2022-09-01T11:56:54.299Z,34
2022-09-01T12:02:00.724Z,42.5
2022-09-01T12:07:07.200Z,42.5
2022-09-01T12:12:13.660Z,33.5
2022-09-01T12:17:20.092Z,32.5
2022-09-01T12:22:26.584Z,38
2022-09-01T12:27:33.035Z,45.5
2022-09-01T12:32:39.399Z,36.5
2022-09-01T12:37:45.912Z,36.5
2022-09-01T12:42:52.331Z,40
2022-09-01T12:47:58.805Z,33
2022-09-01T12:53:05.275Z,31.5
2022-09-01T12:58:11.689Z,33
2022-09-01T13:03:18.165Z,41
2022-09-01T13:08:24.568Z,40
2022-09-01T13:13:30.988Z,40.5
2022-09-01T13:18:37.443Z,37.5
2022-09-01T13:23:43.884Z,46
2022-09-01T13:28:50.359Z,43.5
2022-09-01T13:33:56.777Z,33
2022-09-01T13:39:03.230Z,34
2022-09-01T13:44:09.740Z,35
2022-09-01T13:49:16.328Z,33.5
2022-09-01T13:54:22.890Z,40.5
2022-09-01T13:59:29.460Z,41.5
2022-09-01T14:04:36.046Z,34.5
2022-09-01T14:09:42.620Z,43
2022-09-01T14:14:49.233Z,47.5
2022-09-01T14:19:55.847Z,38
2022-09-01T14:25:02.427Z,32.5
2022-09-01T14:30:09.026Z,39.5
2022-09-01T14:35:15.584Z,36
2022-09-01T14:40:22.164Z,39.5
2022-09-01T14:45:28.716Z,36.5
2022-09-01T14:50:35.411Z,39
2022-09-01T14:55:42.208Z,44
2022-09-01T15:00:49.006Z,36
2022-09-01T15:05:55.806Z,38
2022-09-01T15:11:02.646Z,35
2022-09-01T15:16:09.485Z,35
2022-09-01T15:21:16.306Z,36.5
2022-09-01T15:26:23.128Z,34.5
2022-09-01T15:31:29.939Z,34
2022-09-01T15:36:36.830Z,36.5
2022-09-01T15:41:43.617Z,36.5
2022-09-01T15:46:50.417Z,39
2022-09-01T15:51:57.266Z,35.5
2022-09-01T15:57:04.057Z,32.5
2022-09-01T16:02:11.522Z,35.5
2022-09-01T16:07:17.500Z,38.5
2022-09-01T16:12:23.855Z,36
2022-09-01T16:17:30.205Z,43.5
2022-09-01T16:22:36.527Z,41
2022-09-01T16:27:42.872Z,37
2022-09-01T16:32:49.215Z,35
2022-09-01T16:37:55.563Z,38
2022-09-01T16:43:01.865Z,34.5
2022-09-01T16:48:08.243Z,35
2022-09-01T16:53:14.529Z,35.5
2022-09-01T16:58:20.912Z,45
2022-09-01T17:03:27.193Z,48
2022-09-01T17:08:33.534Z,50
2022-09-01T17:13:39.942Z,49
2022-09-01T17:18:46.306Z,45.5
2022-09-01T17:23:52.581Z,49.5
2022-09-01T17:28:58.910Z,52
2022-09-01T17:34:05.270Z,53.5
2022-09-01T17:39:11.608Z,55.5
2022-09-01T17:44:17.941Z,57
2022-09-01T17:49:24.273Z,57
2022-09-01T17:54:30.639Z,59.5
2022-09-01T17:59:36.962Z,61
2022-09-01T18:04:43.334Z,63
2022-09-01T18:09:49.666Z,65.5
2022-09-01T18:14:56.074Z,69.5
2022-09-01T18:20:02.512Z,72.5
2022-09-01T18:25:08.982Z,74
2022-09-01T18:30:15.459Z,76.5
2022-09-01T18:35:21.913Z,77
2022-09-01T18:40:28.369Z,79
2022-09-01T18:45:34.809Z,79
2022-09-01T18:50:41.313Z,84.5
2022-09-01T18:55:47.837Z,83
2022-09-01T19:00:54.368Z,84
2022-09-01T19:06:00.858Z,86
2022-09-01T19:11:07.382Z,86.5
2022-09-01T19:16:13.877Z,88
2022-09-01T19:21:20.518Z,85.5
2022-09-01T19:26:27.169Z,86.5
2022-09-01T19:31:33.864Z,84.5
2022-09-01T19:36:40.499Z,81
2022-09-01T19:41:47.182Z,80.5
2022-09-01T19:46:53.858Z,79.5
2022-09-01T19:52:00.521Z,79.5
2022-09-01T19:57:07.168Z,82
2022-09-01T20:02:13.798Z,80.5
2022-09-01T20:07:20.488Z,80
2022-09-01T20:12:27.098Z,79.5
2022-09-01T20:17:33.779Z,80.5
2022-09-01T20:22:40.462Z,80
2022-09-01T20:27:47.357Z,81
2022-09-01T20:32:54.298Z,81.5
2022-09-01T20:38:01.147Z,83
2022-09-01T20:43:08.017Z,83
2022-09-01T20:48:14.896Z,84.5
2022-09-01T20:53:21.771Z,83.5
2022-09-01T20:58:28.668Z,84
2022-09-01T21:03:35.548Z,85
2022-09-01T21:08:42.421Z,84.5
2022-09-01T21:13:49.304Z,87.5
2022-09-01T21:18:56.237Z,85.5
2022-09-01T21:24:03.119Z,87.5
2022-09-01T21:29:10.017Z,88
2022-09-01T21:34:17.549Z,86.5
2022-09-01T21:39:23.607Z,89
2022-09-01T21:44:30.131Z,90.5
2022-09-01T21:49:36.610Z,91
2022-09-01T21:54:43.127Z,92.5
2022-09-01T21:59:49.679Z,96
2022-09-01T22:10:02.706Z,93
2022-09-01T22:15:09.221Z,95
2022-09-01T22:20:15.772Z,95.5
2022-09-01T22:25:22.289Z,93.5
2022-09-01T22:30:28.800Z,94
2022-09-01T22:35:35.310Z,97
2022-09-01T22:40:41.787Z,95.5
2022-09-01T22:45:48.306Z,98
2022-09-01T22:50:54.800Z,99.5
2022-09-01T22:56:01.296Z,99
2022-09-01T23:01:09.166Z,99
2022-09-01T23:06:14.309Z,99.5
2022-09-01T23:11:20.755Z,99.5
2022-09-01T23:16:27.219Z,99.5
2022-09-01T23:21:33.723Z,99.5
2022-09-01T23:26:40.215Z,99.5
2022-09-01T23:31:46.774Z,99.5
2022-09-01T23:36:53.213Z,99.5
2022-09-01T23:41:59.739Z,99.5
2022-09-01T23:47:06.320Z,99.5
2022-09-01T23:52:12.983Z,99.5
2022-09-01T23:57:19.631Z,99.5
